sensor_id;sensor_type;location;lat;lon;timestamp;pressure;altitude;pressure_sealevel;temperature;humidity
9257;BME280;4665;51.368;6.782;2023-04-26T00:01:06;101574.97;;;2.63;100.00
9257;BME280;4665;51.368;6.782;2023-04-26T00:03:32;101579.78;;;2.55;100.00
9257;BME280;4665;51.368;6.782;2023-04-26T00:05:59;101565.69;;;2.40;100.00
9257;BME280;4665;51.368;6.782;2023-04-26T00:08:29;101575.94;;;2.28;100.00
9257;BME280;4665;51.368;6.782;2023-04-26T00:10:55;101599.28;;;2.35;100.00
9257;BME280;4665;51.368;6.782;2023-04-26T00:13:20;101590.28;;;2.23;100.00
9257;BME280;4665;51.368;6.782;2023-04-26T00:15:46;101592.13;;;2.21;100.00
9257;BME280;4665;51.368;6.782;2023-04-26T00:18:11;101608.59;;;2.24;100.00
9257;BME280;4665;51.368;6.782;2023-04-26T00:20:36;101594.22;;;2.14;100.00
9257;BME280;4665;51.368;6.782;2023-04-26T00:23:02;101572.53;;;1.93;100.00
9257;BME280;4665;51.368;6.782;2023-04-26T00:25:28;101568.31;;;1.91;100.00
9257;BME280;4665;51.368;6.782;2023-04-26T00:27:54;101589.69;;;2.00;100.00
9257;BME280;4665;51.368;6.782;2023-04-26T00:30:20;101584.44;;;2.00;100.00
9257;BME280;4665;51.368;6.782;2023-04-26T00:32:45;101565.44;;;1.95;100.00
9257;BME280;4665;51.368;6.782;2023-04-26T00:35:12;101562.81;;;1.95;100.00
9257;BME280;4665;51.368;6.782;2023-04-26T00:37:37;101565.44;;;1.95;100.00
9257;BME280;4665;51.368;6.782;2023-04-26T00:40:03;101572.31;;;1.98;100.00
9257;BME280;4665;51.368;6.782;2023-04-26T00:42:30;101573.91;;;2.00;100.00
9257;BME280;4665;51.368;6.782;2023-04-26T00:44:55;101596.25;;;2.09;100.00
9257;BME280;4665;51.368;6.782;2023-04-26T00:47:22;101570.69;;;1.95;100.00
9257;BME280;4665;51.368;6.782;2023-04-26T00:49:48;101574.22;;;1.94;100.00
9257;BME280;4665;51.368;6.782;2023-04-26T00:52:14;101590.78;;;1.96;100.00
9257;BME280;4665;51.368;6.782;2023-04-26T00:54:40;101559.56;;;1.73;100.00
9257;BME280;4665;51.368;6.782;2023-04-26T00:57:06;101558.03;;;1.68;100.00
9257;BME280;4665;51.368;6.782;2023-04-26T00:59:34;101566.84;;;1.67;100.00
9257;BME280;4665;51.368;6.782;2023-04-26T01:02:02;101561.59;;;1.67;100.00
9257;BME280;4665;51.368;6.782;2023-04-26T01:04:28;101577.81;;;1.76;100.00
9257;BME280;4665;51.368;6.782;2023-04-26T01:06:54;101559.81;;;1.68;100.00
9257;BME280;4665;51.368;6.782;2023-04-26T01:09:20;101588.78;;;1.84;100.00
9257;BME280;4665;51.368;6.782;2023-04-26T01:11:46;101587.06;;;1.83;100.00
9257;BME280;4665;51.368;6.782;2023-04-26T01:14:13;101580.19;;;1.80;100.00
9257;BME280;4665;51.368;6.782;2023-04-26T01:16:39;101574.56;;;1.71;100.00
9257;BME280;4665;51.368;6.782;2023-04-26T01:19:09;101564.59;;;1.60;100.00
9257;BME280;4665;51.368;6.782;2023-04-26T01:21:38;101572.41;;;1.61;100.00
9257;BME280;4665;51.368;6.782;2023-04-26T01:24:05;101582.75;;;1.64;100.00
9257;BME280;4665;51.368;6.782;2023-04-26T01:26:31;101586.38;;;1.62;100.00
9257;BME280;4665;51.368;6.782;2023-04-26T01:28:57;101578.13;;;1.52;100.00
9257;BME280;4665;51.368;6.782;2023-04-26T01:31:22;101605.78;;;1.59;100.00
9257;BME280;4665;51.368;6.782;2023-04-26T01:33:48;101588.63;;;1.52;100.00
9257;BME280;4665;51.368;6.782;2023-04-26T01:36:13;101583.06;;;1.41;100.00
9257;BME280;4665;51.368;6.782;2023-04-26T01:38:38;101576.41;;;1.34;100.00
9257;BME280;4665;51.368;6.782;2023-04-26T01:41:04;101597.34;;;1.35;100.00
9257;BME280;4665;51.368;6.782;2023-04-26T01:43:29;101563.28;;;1.16;100.00
9257;BME280;4665;51.368;6.782;2023-04-26T01:45:55;101586.50;;;1.24;100.00
9257;BME280;4665;51.368;6.782;2023-04-26T01:48:20;101568.75;;;1.12;100.00
9257;BME280;4665;51.368;6.782;2023-04-26T01:50:45;101566.03;;;1.13;100.00
9257;BME280;4665;51.368;6.782;2023-04-26T01:53:11;101561.88;;;1.09;100.00
9257;BME280;4665;51.368;6.782;2023-04-26T01:55:36;101585.66;;;1.23;100.00
9257;BME280;4665;51.368;6.782;2023-04-26T01:58:02;101587.56;;;1.20;100.00
9257;BME280;4665;51.368;6.782;2023-04-26T02:00:28;101592.06;;;1.18;100.00
9257;BME280;4665;51.368;6.782;2023-04-26T02:02:54;101565.84;;;0.99;100.00
9257;BME280;4665;51.368;6.782;2023-04-26T02:05:20;101585.78;;;1.03;100.00
9257;BME280;4665;51.368;6.782;2023-04-26T02:07:46;101560.97;;;0.91;100.00
9257;BME280;4665;51.368;6.782;2023-04-26T02:10:11;101580.53;;;1.03;100.00
9257;BME280;4665;51.368;6.782;2023-04-26T02:12:37;101574.56;;;0.99;100.00
9257;BME280;4665;51.368;6.782;2023-04-26T02:15:03;101597.91;;;1.05;100.00
9257;BME280;4665;51.368;6.782;2023-04-26T02:17:28;101580.13;;;0.93;100.00
9257;BME280;4665;51.368;6.782;2023-04-26T02:19:54;101601.53;;;1.03;100.00
9257;BME280;4665;51.368;6.782;2023-04-26T02:22:20;101577.00;;;0.85;100.00
9257;BME280;4665;51.368;6.782;2023-04-26T02:24:49;101576.44;;;0.78;100.00
9257;BME280;4665;51.368;6.782;2023-04-26T02:27:14;101590.97;;;0.86;100.00
9257;BME280;4665;51.368;6.782;2023-04-26T02:29:40;101587.56;;;0.83;100.00
9257;BME280;4665;51.368;6.782;2023-04-26T02:32:06;101592.59;;;0.88;100.00
9257;BME280;4665;51.368;6.782;2023-04-26T02:34:32;101579.84;;;0.80;100.00
9257;BME280;4665;51.368;6.782;2023-04-26T02:36:57;101587.56;;;0.83;100.00
9257;BME280;4665;51.368;6.782;2023-04-26T02:39:22;101585.88;;;0.82;100.00
9257;BME280;4665;51.368;6.782;2023-04-26T02:41:48;101569.16;;;0.66;100.00
9257;BME280;4665;51.368;6.782;2023-04-26T02:44:14;101589.63;;;0.77;100.00
9257;BME280;4665;51.368;6.782;2023-04-26T02:46:39;101581.31;;;0.67;100.00
9257;BME280;4665;51.368;6.782;2023-04-26T02:49:05;101588.28;;;0.68;100.00
9257;BME280;4665;51.368;6.782;2023-04-26T02:51:31;101563.53;;;0.55;100.00
9257;BME280;4665;51.368;6.782;2023-04-26T02:53:57;101582.47;;;0.61;100.00
9257;BME280;4665;51.368;6.782;2023-04-26T02:56:23;101573.19;;;0.54;100.00
9257;BME280;4665;51.368;6.782;2023-04-26T02:58:48;101575.25;;;0.48;100.00
9257;BME280;4665;51.368;6.782;2023-04-26T03:01:14;101574.50;;;0.44;100.00
9257;BME280;4665;51.368;6.782;2023-04-26T03:03:39;101581.53;;;0.44;100.00
9257;BME280;4665;51.368;6.782;2023-04-26T03:06:05;101583.88;;;0.50;100.00
9257;BME280;4665;51.368;6.782;2023-04-26T03:08:31;101577.22;;;0.43;100.00
9257;BME280;4665;51.368;6.782;2023-04-26T03:10:59;101590.03;;;0.49;100.00
9257;BME280;4665;51.368;6.782;2023-04-26T03:13:24;101571.34;;;0.37;100.00
9257;BME280;4665;51.368;6.782;2023-04-26T03:15:50;101580.84;;;0.40;100.00
9257;BME280;4665;51.368;6.782;2023-04-26T03:18:17;101565.59;;;0.29;100.00
9257;BME280;4665;51.368;6.782;2023-04-26T03:20:42;101580.22;;;0.35;100.00
9257;BME280;4665;51.368;6.782;2023-04-26T03:23:08;101588.97;;;0.34;100.00
9257;BME280;4665;51.368;6.782;2023-04-26T03:25:33;101585.56;;;0.32;100.00
9257;BME280;4665;51.368;6.782;2023-04-26T03:27:59;101545.38;;;0.12;100.00
9257;BME280;4665;51.368;6.782;2023-04-26T03:30:24;101564.81;;;0.27;100.00
9257;BME280;4665;51.368;6.782;2023-04-26T03:32:50;101554.53;;;0.23;100.00
9257;BME280;4665;51.368;6.782;2023-04-26T03:35:16;101539.84;;;0.18;100.00
9257;BME280;4665;51.368;6.782;2023-04-26T03:37:41;101555.16;;;0.28;100.00
9257;BME280;4665;51.368;6.782;2023-04-26T03:40:07;101547.81;;;0.17;100.00
9257;BME280;4665;51.368;6.782;2023-04-26T03:42:34;101561.69;;;0.19;100.00
9257;BME280;4665;51.368;6.782;2023-04-26T03:45:00;101557.34;;;0.18;100.00
9257;BME280;4665;51.368;6.782;2023-04-26T03:47:25;101560.53;;;0.06;100.00
9257;BME280;4665;51.368;6.782;2023-04-26T03:49:51;101549.25;;;0.04;100.00
9257;BME280;4665;51.368;6.782;2023-04-26T03:52:16;101544.22;;;-0.01;100.00
9257;BME280;4665;51.368;6.782;2023-04-26T03:54:42;101556.97;;;0.07;100.00
9257;BME280;4665;51.368;6.782;2023-04-26T03:57:07;101566.56;;;0.08;100.00
9257;BME280;4665;51.368;6.782;2023-04-26T03:59:33;101558.69;;;0.08;100.00
9257;BME280;4665;51.368;6.782;2023-04-26T04:01:58;101556.91;;;0.08;100.00
9257;BME280;4665;51.368;6.782;2023-04-26T04:04:23;101563.94;;;0.08;100.00
9257;BME280;4665;51.368;6.782;2023-04-26T04:06:49;101557.53;;;-0.06;100.00
9257;BME280;4665;51.368;6.782;2023-04-26T04:09:14;101559.94;;;-0.01;100.00
9257;BME280;4665;51.368;6.782;2023-04-26T04:11:40;101547.19;;;-0.09;100.00
9257;BME280;4665;51.368;6.782;2023-04-26T04:14:05;101554.91;;;-0.06;100.00
9257;BME280;4665;51.368;6.782;2023-04-26T04:16:31;101569.78;;;-0.06;100.00
9257;BME280;4665;51.368;6.782;2023-04-26T04:18:57;101548.44;;;-0.17;100.00
9257;BME280;4665;51.368;6.782;2023-04-26T04:21:22;101573.03;;;-0.01;100.00
9257;BME280;4665;51.368;6.782;2023-04-26T04:23:48;101568.78;;;-0.04;100.00
9257;BME280;4665;51.368;6.782;2023-04-26T04:26:14;101553.63;;;-0.16;100.00
9257;BME280;4665;51.368;6.782;2023-04-26T04:28:40;101577.28;;;0.02;100.00
9257;BME280;4665;51.368;6.782;2023-04-26T04:31:06;101565.59;;;-0.10;100.00
9257;BME280;4665;51.368;6.782;2023-04-26T04:33:34;101558.78;;;-0.14;100.00
9257;BME280;4665;51.368;6.782;2023-04-26T04:35:59;101590.53;;;-0.02;100.00
9257;BME280;4665;51.368;6.782;2023-04-26T04:38:25;101573.50;;;-0.12;100.00
9257;BME280;4665;51.368;6.782;2023-04-26T04:40:50;101580.19;;;-0.05;100.00
9257;BME280;4665;51.368;6.782;2023-04-26T04:43:16;101582.72;;;-0.03;100.00
9257;BME280;4665;51.368;6.782;2023-04-26T04:45:42;101557.78;;;-0.12;100.00
9257;BME280;4665;51.368;6.782;2023-04-26T04:48:07;101590.25;;;0.05;100.00
9257;BME280;4665;51.368;6.782;2023-04-26T04:50:33;101572.25;;;-0.03;100.00
9257;BME280;4665;51.368;6.782;2023-04-26T04:53:00;101595.50;;;0.05;100.00
9257;BME280;4665;51.368;6.782;2023-04-26T04:55:25;101574.03;;;-0.04;100.00
9257;BME280;4665;51.368;6.782;2023-04-26T04:57:51;101563.69;;;-0.07;100.00
9257;BME280;4665;51.368;6.782;2023-04-26T05:00:16;101583.47;;;0.01;100.00
9257;BME280;4665;51.368;6.782;2023-04-26T05:02:42;101585.94;;;0.04;100.00
9257;BME280;4665;51.368;6.782;2023-04-26T05:05:08;101598.63;;;0.13;100.00
9257;BME280;4665;51.368;6.782;2023-04-26T05:07:35;101583.06;;;0.10;100.00
9257;BME280;4665;51.368;6.782;2023-04-26T05:10:00;101601.00;;;0.19;100.00
9257;BME280;4665;51.368;6.782;2023-04-26T05:12:26;101596.75;;;0.16;100.00
9257;BME280;4665;51.368;6.782;2023-04-26T05:14:51;101579.44;;;0.12;100.00
9257;BME280;4665;51.368;6.782;2023-04-26T05:17:17;101594.78;;;0.22;100.00
9257;BME280;4665;51.368;6.782;2023-04-26T05:19:42;101614.34;;;0.33;100.00
9257;BME280;4665;51.368;6.782;2023-04-26T05:22:08;101623.00;;;0.35;100.00
9257;BME280;4665;51.368;6.782;2023-04-26T05:24:33;101610.00;;;0.32;100.00
9257;BME280;4665;51.368;6.782;2023-04-26T05:26:59;101616.81;;;0.36;100.00
9257;BME280;4665;51.368;6.782;2023-04-26T05:29:30;101628.47;;;0.50;100.00
9257;BME280;4665;51.368;6.782;2023-04-26T05:31:55;101616.56;;;0.43;100.00
9257;BME280;4665;51.368;6.782;2023-04-26T05:34:22;101619.66;;;0.51;100.00
9257;BME280;4665;51.368;6.782;2023-04-26T05:36:48;101627.41;;;0.54;100.00
9257;BME280;4665;51.368;6.782;2023-04-26T05:39:13;101624.78;;;0.54;100.00
9257;BME280;4665;51.368;6.782;2023-04-26T05:41:38;101622.53;;;0.65;100.00
9257;BME280;4665;51.368;6.782;2023-04-26T05:44:04;101614.56;;;0.67;100.00
9257;BME280;4665;51.368;6.782;2023-04-26T05:46:29;101620.13;;;0.79;100.00
9257;BME280;4665;51.368;6.782;2023-04-26T05:48:54;101631.72;;;0.93;100.00
9257;BME280;4665;51.368;6.782;2023-04-26T05:51:20;101621.94;;;0.96;100.00
9257;BME280;4665;51.368;6.782;2023-04-26T05:53:45;101651.44;;;1.20;100.00
9257;BME280;4665;51.368;6.782;2023-04-26T05:56:11;101618.41;;;1.16;100.00
9257;BME280;4665;51.368;6.782;2023-04-26T05:58:36;101620.25;;;1.32;100.00
9257;BME280;4665;51.368;6.782;2023-04-26T06:01:02;101627.19;;;1.52;100.00
9257;BME280;4665;51.368;6.782;2023-04-26T06:03:27;101639.84;;;1.78;100.00
9257;BME280;4665;51.368;6.782;2023-04-26T06:05:52;101621.84;;;1.88;100.00
9257;BME280;4665;51.368;6.782;2023-04-26T06:08:18;101631.28;;;2.09;100.00
9257;BME280;4665;51.368;6.782;2023-04-26T06:10:43;101622.44;;;2.28;100.00
9257;BME280;4665;51.368;6.782;2023-04-26T06:13:08;101650.50;;;2.61;100.00
9257;BME280;4665;51.368;6.782;2023-04-26T06:15:34;101625.63;;;2.66;100.00
9257;BME280;4665;51.368;6.782;2023-04-26T06:17:59;101628.97;;;2.86;100.00
9257;BME280;4665;51.368;6.782;2023-04-26T06:20:25;101643.50;;;3.09;100.00
9257;BME280;4665;51.368;6.782;2023-04-26T06:22:50;101662.00;;;3.39;100.00
9257;BME280;4665;51.368;6.782;2023-04-26T06:25:16;101659.44;;;3.53;100.00
9257;BME280;4665;51.368;6.782;2023-04-26T06:27:41;101666.19;;;3.73;100.00
9257;BME280;4665;51.368;6.782;2023-04-26T06:30:07;101662.84;;;3.86;100.00
9257;BME280;4665;51.368;6.782;2023-04-26T06:32:33;101665.72;;;3.97;100.00
9257;BME280;4665;51.368;6.782;2023-04-26T06:34:58;101662.69;;;4.03;100.00
9257;BME280;4665;51.368;6.782;2023-04-26T06:37:24;101652.53;;;3.97;100.00
9257;BME280;4665;51.368;6.782;2023-04-26T06:39:49;101668.66;;;4.07;100.00
9257;BME280;4665;51.368;6.782;2023-04-26T06:42:15;101658.66;;;4.12;100.00
9257;BME280;4665;51.368;6.782;2023-04-26T06:44:40;101681.03;;;4.20;100.00
9257;BME280;4665;51.368;6.782;2023-04-26T06:47:06;101673.88;;;4.22;100.00
9257;BME280;4665;51.368;6.782;2023-04-26T06:49:34;101658.13;;;4.21;100.00
9257;BME280;4665;51.368;6.782;2023-04-26T06:51:59;101637.66;;;4.10;100.00
9257;BME280;4665;51.368;6.782;2023-04-26T06:54:29;101661.81;;;4.33;100.00
9257;BME280;4665;51.368;6.782;2023-04-26T06:56:55;101656.06;;;4.40;100.00
9257;BME280;4665;51.368;6.782;2023-04-26T06:59:20;101660.34;;;4.57;100.00
9257;BME280;4665;51.368;6.782;2023-04-26T07:01:46;101661.44;;;4.68;100.00
9257;BME280;4665;51.368;6.782;2023-04-26T07:04:11;101649.47;;;4.76;100.00
9257;BME280;4665;51.368;6.782;2023-04-26T07:06:37;101639.25;;;4.84;100.00
9257;BME280;4665;51.368;6.782;2023-04-26T07:09:03;101639.06;;;5.02;100.00
9257;BME280;4665;51.368;6.782;2023-04-26T07:11:29;101646.06;;;5.30;100.00
9257;BME280;4665;51.368;6.782;2023-04-26T07:13:55;101664.50;;;5.44;100.00
9257;BME280;4665;51.368;6.782;2023-04-26T07:16:21;101665.63;;;5.55;100.00
9257;BME280;4665;51.368;6.782;2023-04-26T07:18:47;101660.13;;;5.58;100.00
9257;BME280;4665;51.368;6.782;2023-04-26T07:21:17;101644.88;;;5.48;100.00
9257;BME280;4665;51.368;6.782;2023-04-26T07:23:42;101634.16;;;5.37;100.00
9257;BME280;4665;51.368;6.782;2023-04-26T07:26:09;101622.00;;;5.47;100.00
9257;BME280;4665;51.368;6.782;2023-04-26T07:28:35;101643.66;;;5.67;100.00
9257;BME280;4665;51.368;6.782;2023-04-26T07:31:00;101627.66;;;5.56;100.00
9257;BME280;4665;51.368;6.782;2023-04-26T07:33:26;101641.94;;;5.66;100.00
9257;BME280;4665;51.368;6.782;2023-04-26T07:35:56;101622.69;;;5.64;100.00
9257;BME280;4665;51.368;6.782;2023-04-26T07:38:23;101660.19;;;5.83;100.00
9257;BME280;4665;51.368;6.782;2023-04-26T07:40:48;101637.31;;;5.69;100.00
9257;BME280;4665;51.368;6.782;2023-04-26T07:43:15;101653.19;;;5.82;100.00
9257;BME280;4665;51.368;6.782;2023-04-26T07:45:40;101638.28;;;5.81;100.00
9257;BME280;4665;51.368;6.782;2023-04-26T07:48:06;101637.31;;;5.82;100.00
9257;BME280;4665;51.368;6.782;2023-04-26T07:50:32;101628.91;;;5.90;100.00
9257;BME280;4665;51.368;6.782;2023-04-26T07:52:57;101651.81;;;6.04;100.00
9257;BME280;4665;51.368;6.782;2023-04-26T07:55:23;101628.31;;;5.99;100.00
9257;BME280;4665;51.368;6.782;2023-04-26T07:57:48;101614.31;;;6.10;100.00
9257;BME280;4665;51.368;6.782;2023-04-26T08:00:14;101623.22;;;6.22;100.00
9257;BME280;4665;51.368;6.782;2023-04-26T08:02:43;101651.19;;;6.39;100.00
9257;BME280;4665;51.368;6.782;2023-04-26T08:05:10;101643.75;;;6.31;100.00
9257;BME280;4665;51.368;6.782;2023-04-26T08:07:36;101629.38;;;6.22;100.00
9257;BME280;4665;51.368;6.782;2023-04-26T08:10:01;101640.81;;;6.23;100.00
9257;BME280;4665;51.368;6.782;2023-04-26T08:12:27;101640.16;;;6.19;100.00
9257;BME280;4665;51.368;6.782;2023-04-26T08:14:52;101644.81;;;6.16;100.00
9257;BME280;4665;51.368;6.782;2023-04-26T08:17:18;101641.03;;;6.20;100.00
9257;BME280;4665;51.368;6.782;2023-04-26T08:19:43;101626.41;;;6.14;100.00
9257;BME280;4665;51.368;6.782;2023-04-26T08:22:08;101619.31;;;6.27;100.00
9257;BME280;4665;51.368;6.782;2023-04-26T08:24:34;101620.69;;;6.46;100.00
9257;BME280;4665;51.368;6.782;2023-04-26T08:26:59;101631.38;;;6.57;100.00
9257;BME280;4665;51.368;6.782;2023-04-26T08:29:25;101624.69;;;6.51;100.00
9257;BME280;4665;51.368;6.782;2023-04-26T08:31:51;101640.78;;;6.48;100.00
9257;BME280;4665;51.368;6.782;2023-04-26T08:34:17;101641.88;;;6.46;100.00
9257;BME280;4665;51.368;6.782;2023-04-26T08:36:43;101652.75;;;6.28;100.00
9257;BME280;4665;51.368;6.782;2023-04-26T08:39:08;101627.25;;;6.02;100.00
9257;BME280;4665;51.368;6.782;2023-04-26T08:41:44;101653.69;;;6.15;100.00
9257;BME280;4665;51.368;6.782;2023-04-26T08:44:13;101650.44;;;6.11;100.00
9257;BME280;4665;51.368;6.782;2023-04-26T08:46:48;101630.81;;;6.01;100.00
9257;BME280;4665;51.368;6.782;2023-04-26T08:51:45;101648.41;;;6.15;100.00
9257;BME280;4665;51.368;6.782;2023-04-26T08:54:11;101641.34;;;6.15;100.00
9257;BME280;4665;51.368;6.782;2023-04-26T08:56:38;101650.31;;;6.25;100.00
9257;BME280;4665;51.368;6.782;2023-04-26T08:59:06;101648.66;;;6.24;100.00
9257;BME280;4665;51.368;6.782;2023-04-26T09:01:33;101639.00;;;6.23;100.00
9257;BME280;4665;51.368;6.782;2023-04-26T09:03:58;101649.34;;;6.26;100.00
9257;BME280;4665;51.368;6.782;2023-04-26T09:06:24;101646.09;;;6.23;100.00
9257;BME280;4665;51.368;6.782;2023-04-26T09:08:54;101638.69;;;6.15;100.00
9257;BME280;4665;51.368;6.782;2023-04-26T09:11:20;101651.06;;;6.27;100.00
9257;BME280;4665;51.368;6.782;2023-04-26T09:13:46;101653.72;;;6.27;100.00
9257;BME280;4665;51.368;6.782;2023-04-26T09:16:11;101655.41;;;6.28;100.00
9257;BME280;4665;51.368;6.782;2023-04-26T09:18:46;101634.84;;;6.19;100.00
9257;BME280;4665;51.368;6.782;2023-04-26T09:21:13;101629.78;;;6.16;100.00
9257;BME280;4665;51.368;6.782;2023-04-26T09:23:58;101647.47;;;6.28;100.00
9257;BME280;4665;51.368;6.782;2023-04-26T09:26:23;101645.56;;;6.30;100.00
9257;BME280;4665;51.368;6.782;2023-04-26T09:29:10;101643.03;;;6.29;100.00
9257;BME280;4665;51.368;6.782;2023-04-26T09:31:38;101643.75;;;6.31;100.00
9257;BME280;4665;51.368;6.782;2023-04-26T09:34:04;101625.75;;;6.23;100.00
9257;BME280;4665;51.368;6.782;2023-04-26T09:36:29;101636.78;;;6.30;100.00
9257;BME280;4665;51.368;6.782;2023-04-26T09:38:55;101622.06;;;6.26;100.00
9257;BME280;4665;51.368;6.782;2023-04-26T09:41:21;101643.75;;;6.44;100.00
9257;BME280;4665;51.368;6.782;2023-04-26T09:43:51;101610.28;;;6.43;100.00
9257;BME280;4665;51.368;6.782;2023-04-26T09:46:22;101635.38;;;6.63;100.00
9257;BME280;4665;51.368;6.782;2023-04-26T09:49:00;101616.44;;;6.56;100.00
9257;BME280;4665;51.368;6.782;2023-04-26T09:51:25;101605.31;;;6.51;100.00
9257;BME280;4665;51.368;6.782;2023-04-26T09:53:51;101614.41;;;6.47;100.00
9257;BME280;4665;51.368;6.782;2023-04-26T09:56:18;101622.69;;;6.55;100.00
9257;BME280;4665;51.368;6.782;2023-04-26T10:01:17;101615.16;;;6.49;100.00
9257;BME280;4665;51.368;6.782;2023-04-26T10:03:44;101628.50;;;6.60;100.00
9257;BME280;4665;51.368;6.782;2023-04-26T10:06:11;101625.94;;;6.59;100.00
9257;BME280;4665;51.368;6.782;2023-04-26T10:08:37;101633.25;;;6.68;100.00
9257;BME280;4665;51.368;6.782;2023-04-26T10:11:04;101620.47;;;6.62;100.00
9257;BME280;4665;51.368;6.782;2023-04-26T10:13:31;101619.59;;;6.61;100.00
9257;BME280;4665;51.368;6.782;2023-04-26T10:15:58;101635.56;;;6.72;100.00
9257;BME280;4665;51.368;6.782;2023-04-26T10:18:24;101619.06;;;6.69;100.00
9257;BME280;4665;51.368;6.782;2023-04-26T10:20:52;101616.03;;;6.86;100.00
9257;BME280;4665;51.368;6.782;2023-04-26T10:23:21;101622.66;;;7.05;100.00
9257;BME280;4665;51.368;6.782;2023-04-26T10:25:50;101597.53;;;7.10;100.00
9257;BME280;4665;51.368;6.782;2023-04-26T10:28:16;101607.78;;;7.39;100.00
9257;BME280;4665;51.368;6.782;2023-04-26T10:30:56;101613.53;;;7.57;100.00
9257;BME280;4665;51.368;6.782;2023-04-26T10:33:22;101612.63;;;7.69;100.00
9257;BME280;4665;51.368;6.782;2023-04-26T10:36:11;101611.56;;;7.83;100.00
9257;BME280;4665;51.368;6.782;2023-04-26T10:41:41;101611.13;;;8.12;100.00
9257;BME280;4665;51.368;6.782;2023-04-26T10:44:38;101615.72;;;7.98;100.00
9257;BME280;4665;51.368;6.782;2023-04-26T10:47:06;101612.06;;;7.88;100.00
9257;BME280;4665;51.368;6.782;2023-04-26T10:49:45;101613.00;;;7.76;100.00
9257;BME280;4665;51.368;6.782;2023-04-26T10:52:15;101607.91;;;7.62;100.00
9257;BME280;4665;51.368;6.782;2023-04-26T10:57:13;101606.28;;;7.48;100.00
9257;BME280;4665;51.368;6.782;2023-04-26T10:59:38;101600.34;;;7.44;100.00
9257;BME280;4665;51.368;6.782;2023-04-26T11:02:09;101608.09;;;7.47;100.00
9257;BME280;4665;51.368;6.782;2023-04-26T11:04:53;101609.53;;;7.51;100.00
9257;BME280;4665;51.368;6.782;2023-04-26T11:07:37;101598.91;;;7.51;100.00
9257;BME280;4665;51.368;6.782;2023-04-26T11:10:07;101597.00;;;7.53;100.00
9257;BME280;4665;51.368;6.782;2023-04-26T11:12:33;101604.00;;;7.54;100.00
9257;BME280;4665;51.368;6.782;2023-04-26T11:14:59;101610.03;;;7.56;100.00
9257;BME280;4665;51.368;6.782;2023-04-26T11:17:25;101607.50;;;7.55;100.00
9257;BME280;4665;51.368;6.782;2023-04-26T11:19:50;101600.63;;;7.52;100.00
9257;BME280;4665;51.368;6.782;2023-04-26T11:22:15;101604.97;;;7.53;91.03
9257;BME280;4665;51.368;6.782;2023-04-26T11:24:46;101596.50;;;7.48;84.46
9257;BME280;4665;51.368;6.782;2023-04-26T11:27:11;101600.50;;;7.54;89.77
9257;BME280;4665;51.368;6.782;2023-04-26T11:29:37;101601.13;;;7.57;99.21
9257;BME280;4665;51.368;6.782;2023-04-26T11:32:03;101590.28;;;7.61;100.00
9257;BME280;4665;51.368;6.782;2023-04-26T11:34:36;101576.91;;;7.62;91.44
9257;BME280;4665;51.368;6.782;2023-04-26T11:37:04;101588.84;;;7.68;72.70
9257;BME280;4665;51.368;6.782;2023-04-26T11:39:31;101582.34;;;7.72;73.67
9257;BME280;4665;51.368;6.782;2023-04-26T11:42:09;101579.72;;;7.72;74.56
9257;BME280;4665;51.368;6.782;2023-04-26T11:44:36;101568.38;;;7.70;82.09
9257;BME280;4665;51.368;6.782;2023-04-26T11:47:03;101567.19;;;7.74;82.61
9257;BME280;4665;51.368;6.782;2023-04-26T11:49:30;101581.66;;;7.81;78.87
9257;BME280;4665;51.368;6.782;2023-04-26T11:51:57;101574.88;;;7.77;79.05
9257;BME280;4665;51.368;6.782;2023-04-26T11:54:30;101574.78;;;7.78;80.19
9257;BME280;4665;51.368;6.782;2023-04-26T11:56:59;101570.31;;;7.79;79.01
9257;BME280;4665;51.368;6.782;2023-04-26T11:59:28;101574.19;;;7.86;89.08
9257;BME280;4665;51.368;6.782;2023-04-26T12:01:55;101567.09;;;7.87;91.54
9257;BME280;4665;51.368;6.782;2023-04-26T12:04:28;101579.63;;;7.96;100.00
9257;BME280;4665;51.368;6.782;2023-04-26T12:06:55;101575.66;;;8.01;92.39
9257;BME280;4665;51.368;6.782;2023-04-26T12:09:27;101570.59;;;8.10;92.01
9257;BME280;4665;51.368;6.782;2023-04-26T12:12:00;101579.19;;;8.13;86.39
9257;BME280;4665;51.368;6.782;2023-04-26T12:14:36;101584.88;;;8.20;87.34
9257;BME280;4665;51.368;6.782;2023-04-26T12:17:03;101584.03;;;8.19;79.82
9257;BME280;4665;51.368;6.782;2023-04-26T12:19:37;101575.91;;;8.21;83.29
9257;BME280;4665;51.368;6.782;2023-04-26T12:22:06;101588.00;;;8.25;84.68
9257;BME280;4665;51.368;6.782;2023-04-26T12:24:33;101579.31;;;8.23;84.98
9257;BME280;4665;51.368;6.782;2023-04-26T12:27:04;101593.19;;;8.27;79.77
9257;BME280;4665;51.368;6.782;2023-04-26T12:29:31;101583.78;;;8.22;76.04
9257;BME280;4665;51.368;6.782;2023-04-26T12:31:58;101577.84;;;8.19;80.68
9257;BME280;4665;51.368;6.782;2023-04-26T12:34:23;101569.53;;;8.23;84.25
9257;BME280;4665;51.368;6.782;2023-04-26T12:36:49;101564.84;;;8.27;100.00
9257;BME280;4665;51.368;6.782;2023-04-26T12:39:14;101571.34;;;8.34;100.00
9257;BME280;4665;51.368;6.782;2023-04-26T12:41:41;101574.97;;;8.45;100.00
9257;BME280;4665;51.368;6.782;2023-04-26T12:44:07;101575.97;;;8.43;100.00
9257;BME280;4665;51.368;6.782;2023-04-26T12:46:33;101581.53;;;8.40;77.72
9257;BME280;4665;51.368;6.782;2023-04-26T12:48:58;101583.09;;;8.43;78.73
9257;BME280;4665;51.368;6.782;2023-04-26T12:51:24;101558.31;;;8.31;86.35
9257;BME280;4665;51.368;6.782;2023-04-26T12:53:49;101576.69;;;8.46;85.76
9257;BME280;4665;51.368;6.782;2023-04-26T12:56:15;101568.00;;;8.43;81.83
9257;BME280;4665;51.368;6.782;2023-04-26T12:58:41;101581.63;;;8.50;84.34
9257;BME280;4665;51.368;6.782;2023-04-26T13:01:06;101578.72;;;8.42;72.83
9257;BME280;4665;51.368;6.782;2023-04-26T13:03:31;101574.47;;;8.39;77.88
9257;BME280;4665;51.368;6.782;2023-04-26T13:05:57;101576.41;;;8.37;78.27
9257;BME280;4665;51.368;6.782;2023-04-26T13:08:22;101568.81;;;8.33;75.12
9257;BME280;4665;51.368;6.782;2023-04-26T13:10:48;101590.34;;;8.52;68.93
9257;BME280;4665;51.368;6.782;2023-04-26T13:13:14;101584.19;;;8.52;67.96
9257;BME280;4665;51.368;6.782;2023-04-26T13:15:39;101593.81;;;8.53;65.71
9257;BME280;4665;51.368;6.782;2023-04-26T13:18:04;101585.38;;;8.48;65.60
9257;BME280;4665;51.368;6.782;2023-04-26T13:20:30;101584.41;;;8.49;71.54